Terminal Aerodrome Forecast
Issued by NWS Quad Cities IA IL

Home | Current Version | Previous Version | Text Only | Print | Product List | Glossary On
Versions: 1 2 3 4 5 6 7 8 9 10 11 12 13 14 15 16 17 18 19 20 21 22 23 24
000
FTUS43 KDVN 262322
TAFDBQ
TAF
KDBQ 262322Z 2700/2724 28008KT P6SM FEW080
     FM270500 21005KT P6SM SKC
     FM271100 VRB03KT 5SM BR SCT060
     FM271500 17009KT P6SM SCT040=

USA.gov is the U.S. government's official web portal to all federal, state and local government web resources and services.